createdAt,value
2019-03-24T00:01:08.529Z,27.90
2019-03-24T00:03:39.414Z,27.90
2019-03-24T00:06:10.467Z,27.90
2019-03-24T00:08:41.528Z,27.90
2019-03-24T00:11:12.375Z,27.90
2019-03-24T00:13:43.422Z,27.90
2019-03-24T00:16:14.306Z,27.90
2019-03-24T00:18:45.202Z,28.00
2019-03-24T00:21:16.042Z,28.00
2019-03-24T00:23:47.073Z,28.00
2019-03-24T00:26:18.277Z,28.00
2019-03-24T00:28:50.023Z,28.00
2019-03-24T00:31:21.257Z,28.00
2019-03-24T00:33:52.375Z,28.00
2019-03-24T00:36:23.487Z,28.10
2019-03-24T00:38:56.207Z,28.10
2019-03-24T00:41:26.843Z,28.20
2019-03-24T00:43:57.981Z,28.20
2019-03-24T00:46:28.921Z,28.20
2019-03-24T00:48:59.965Z,28.20
2019-03-24T00:51:30.865Z,28.20
2019-03-24T00:54:01.815Z,28.20
2019-03-24T00:56:36.981Z,28.30
2019-03-24T00:59:08.068Z,28.30
2019-03-24T01:01:39.137Z,28.40
2019-03-24T01:04:10.511Z,28.40
2019-03-24T01:06:45.788Z,28.40
2019-03-24T01:09:17.081Z,28.40
2019-03-24T01:11:48.267Z,28.40
2019-03-24T01:14:19.267Z,28.40
2019-03-24T01:16:50.358Z,28.50
2019-03-24T01:19:21.427Z,28.50
2019-03-24T01:21:55.654Z,28.60
2019-03-24T01:24:28.045Z,28.60
2019-03-24T01:27:01.971Z,28.60
2019-03-24T01:29:32.939Z,28.70
2019-03-24T01:32:04.825Z,28.60
2019-03-24T01:34:40.122Z,28.70
2019-03-24T01:37:11.449Z,28.70
2019-03-24T01:39:42.709Z,28.70
2019-03-24T01:42:21.414Z,28.70
2019-03-24T01:44:58.218Z,28.70
2019-03-24T01:47:32.496Z,28.70
2019-03-24T01:50:05.265Z,28.80
2019-03-24T01:52:43.413Z,28.70
2019-03-24T01:57:50.684Z,28.80
2019-03-24T02:00:22.112Z,28.90
2019-03-24T02:02:54.492Z,28.90
2019-03-24T02:05:35.550Z,29.00
2019-03-24T02:08:08.086Z,29.10
2019-03-24T02:10:39.248Z,29.10
2019-03-24T02:13:13.251Z,29.10
2019-03-24T02:15:44.419Z,29.10
2019-03-24T02:18:18.517Z,29.20
2019-03-24T02:20:49.453Z,29.30
2019-03-24T02:23:20.253Z,29.30
2019-03-24T02:25:51.375Z,29.30
2019-03-24T02:28:22.294Z,29.40
2019-03-24T02:30:53.384Z,29.40
2019-03-24T02:33:25.910Z,29.50
2019-03-24T02:35:56.953Z,29.50
2019-03-24T02:38:27.889Z,29.60
2019-03-24T02:41:02.327Z,29.70
2019-03-24T02:43:34.729Z,29.70
2019-03-24T02:46:23.560Z,29.70
2019-03-24T02:48:44.550Z,29.80
2019-03-24T02:51:18.198Z,29.80
2019-03-24T02:53:54.894Z,29.80
2019-03-24T02:56:33.723Z,29.90
2019-03-24T02:59:04.962Z,29.90
2019-03-24T03:01:37.938Z,29.90
2019-03-24T03:04:10.562Z,30.00
2019-03-24T03:06:41.598Z,30.00
2019-03-24T03:09:13.901Z,30.10
2019-03-24T03:11:45.194Z,30.10
2019-03-24T03:14:17.502Z,30.10
2019-03-24T03:16:50.892Z,30.20
2019-03-24T03:19:22.383Z,30.30
2019-03-24T03:21:57.865Z,30.40
2019-03-24T03:24:30.905Z,30.40
2019-03-24T03:27:04.609Z,30.40
2019-03-24T03:29:38.861Z,30.50
2019-03-24T03:32:10.135Z,30.50
2019-03-24T03:34:41.469Z,30.50
2019-03-24T03:37:12.447Z,30.60
2019-03-24T03:39:43.789Z,30.70
2019-03-24T03:42:16.806Z,30.60
2019-03-24T03:44:48.733Z,30.60
2019-03-24T03:47:19.776Z,30.60
2019-03-24T03:49:50.703Z,30.60
2019-03-24T03:52:26.437Z,30.60
2019-03-24T03:54:59.175Z,30.60
2019-03-24T03:57:31.143Z,30.70
2019-03-24T04:00:03.758Z,30.70
2019-03-24T04:02:35.703Z,30.70
2019-03-24T04:05:10.679Z,30.70
2019-03-24T04:07:42.305Z,30.70
2019-03-24T04:10:13.599Z,30.70
2019-03-24T04:12:45.750Z,30.70
2019-03-24T04:15:16.880Z,30.70
2019-03-24T04:17:48.115Z,30.70
2019-03-24T04:20:19.278Z,30.70
2019-03-24T04:22:50.529Z,30.80
2019-03-24T04:25:24.756Z,30.80
2019-03-24T04:27:55.686Z,30.90
2019-03-24T04:30:28.125Z,30.90
2019-03-24T04:32:59.192Z,31.10
2019-03-24T04:35:30.412Z,31.20
2019-03-24T04:38:02.613Z,31.30
2019-03-24T04:40:33.285Z,31.30
2019-03-24T04:43:09.124Z,31.40
2019-03-24T04:45:40.911Z,31.40
2019-03-24T04:48:12.229Z,31.50
2019-03-24T04:50:43.381Z,31.60
2019-03-24T04:53:14.609Z,31.60
2019-03-24T04:55:46.549Z,31.70
2019-03-24T04:58:17.687Z,31.70
2019-03-24T05:00:49.000Z,31.80
2019-03-24T05:03:20.008Z,31.80
2019-03-24T05:05:58.354Z,31.90
2019-03-24T05:08:40.614Z,32.00
2019-03-24T05:11:12.109Z,32.10
2019-03-24T05:13:43.720Z,32.20
2019-03-24T05:16:14.913Z,32.30
2019-03-24T05:18:49.620Z,32.30
2019-03-24T05:21:18.940Z,32.40
2019-03-24T05:23:50.090Z,32.40
2019-03-24T05:26:21.263Z,32.40
2019-03-24T05:28:52.470Z,32.40
2019-03-24T05:31:23.587Z,32.40
2019-03-24T05:33:54.707Z,32.50
2019-03-24T05:36:26.163Z,32.50
2019-03-24T05:38:57.178Z,32.60
2019-03-24T05:41:28.145Z,32.60
2019-03-24T05:43:59.539Z,32.60
2019-03-24T05:46:30.377Z,32.60
2019-03-24T05:49:07.877Z,32.60
2019-03-24T05:51:39.350Z,32.60
2019-03-24T05:54:11.997Z,32.60
2019-03-24T05:56:44.464Z,32.70
2019-03-24T05:59:15.416Z,32.70
2019-03-24T06:01:47.715Z,32.80
2019-03-24T06:04:19.481Z,32.80
2019-03-24T06:06:50.859Z,32.80
2019-03-24T06:09:21.925Z,32.80
2019-03-24T06:11:53.155Z,32.80
2019-03-24T06:14:29.151Z,32.70
2019-03-24T06:17:06.417Z,32.70
2019-03-24T06:19:41.062Z,32.70
2019-03-24T06:22:12.047Z,32.70
2019-03-24T06:24:45.958Z,32.70
2019-03-24T06:27:17.078Z,32.80
2019-03-24T06:29:48.158Z,32.80
2019-03-24T06:32:19.414Z,32.90
2019-03-24T06:34:50.714Z,32.80
2019-03-24T06:37:25.655Z,32.80
2019-03-24T06:39:57.720Z,32.80
2019-03-24T06:42:30.749Z,32.80
2019-03-24T06:45:05.146Z,32.90
2019-03-24T06:47:41.256Z,32.90
2019-03-24T06:50:12.383Z,32.90
2019-03-24T06:52:43.339Z,32.80
2019-03-24T06:55:14.906Z,32.80
2019-03-24T06:57:45.915Z,32.80
2019-03-24T07:00:17.317Z,32.80
2019-03-24T07:02:48.384Z,32.80
2019-03-24T07:05:19.425Z,32.90
2019-03-24T07:07:51.739Z,32.90
2019-03-24T07:10:25.792Z,32.90
2019-03-24T07:12:57.517Z,33.00
2019-03-24T07:15:28.946Z,33.10
2019-03-24T07:18:08.471Z,33.10
2019-03-24T07:20:35.488Z,33.10
2019-03-24T07:23:12.288Z,33.10
2019-03-24T07:25:43.296Z,33.00
2019-03-24T07:28:15.730Z,33.00
2019-03-24T07:30:48.353Z,33.00
2019-03-24T07:33:19.524Z,33.00
2019-03-24T07:35:51.319Z,33.10
2019-03-24T07:38:31.073Z,33.10
2019-03-24T07:41:07.437Z,33.10
2019-03-24T07:43:46.229Z,33.20
2019-03-24T07:46:21.146Z,33.20
2019-03-24T07:48:52.620Z,33.20
2019-03-24T07:51:23.855Z,33.20
2019-03-24T07:53:55.015Z,33.30
2019-03-24T07:56:27.308Z,33.30
2019-03-24T07:59:06.670Z,33.30
2019-03-24T08:01:38.831Z,33.30
2019-03-24T08:04:09.638Z,33.30
2019-03-24T08:06:40.758Z,33.30
2019-03-24T08:09:13.057Z,33.30
2019-03-24T08:11:45.512Z,33.30
2019-03-24T08:14:21.490Z,33.40
2019-03-24T08:16:52.122Z,33.40
2019-03-24T08:19:23.093Z,33.40
2019-03-24T08:21:54.079Z,33.40
2019-03-24T08:24:25.145Z,33.40
2019-03-24T08:26:56.153Z,33.40
2019-03-24T08:29:26.922Z,33.40
2019-03-24T08:31:59.993Z,33.40
2019-03-24T08:34:30.996Z,33.40
2019-03-24T08:37:02.951Z,33.40
2019-03-24T08:39:33.787Z,33.40
2019-03-24T08:42:04.894Z,33.50
2019-03-24T08:44:36.025Z,33.50
2019-03-24T08:47:07.355Z,33.50
2019-03-24T08:49:38.456Z,33.40
2019-03-24T08:52:09.401Z,33.50
2019-03-24T08:54:40.584Z,33.50
2019-03-24T08:57:13.542Z,33.60
2019-03-24T08:59:44.109Z,33.60
2019-03-24T09:02:15.505Z,33.60
2019-03-24T09:04:50.084Z,33.70
2019-03-24T09:07:21.171Z,33.70
2019-03-24T09:09:56.861Z,33.60
2019-03-24T09:12:31.104Z,33.70
2019-03-24T09:15:01.578Z,33.60
2019-03-24T09:17:37.165Z,33.60
2019-03-24T09:20:11.516Z,33.60
2019-03-24T09:22:42.770Z,33.60
2019-03-24T09:25:14.135Z,33.60
2019-03-24T09:27:45.278Z,33.60
2019-03-24T09:30:19.048Z,33.60
2019-03-24T09:32:49.965Z,33.60
2019-03-24T09:35:21.272Z,33.60
2019-03-24T09:37:52.735Z,33.60
2019-03-24T09:40:26.066Z,33.60
2019-03-24T09:42:57.749Z,33.60
2019-03-24T09:45:28.856Z,33.60
2019-03-24T09:47:59.856Z,33.60
2019-03-24T09:50:31.200Z,33.60
2019-03-24T09:53:02.286Z,33.50
2019-03-24T09:55:37.051Z,33.50
2019-03-24T09:58:08.160Z,33.50
2019-03-24T10:00:39.225Z,33.50
2019-03-24T10:03:11.422Z,33.40
2019-03-24T10:05:42.374Z,33.40
2019-03-24T10:08:13.641Z,33.40
2019-03-24T10:10:45.092Z,33.30
2019-03-24T10:13:16.859Z,33.30
2019-03-24T10:15:48.086Z,33.30
2019-03-24T10:18:18.975Z,33.30
2019-03-24T10:20:50.975Z,33.20
2019-03-24T10:23:22.049Z,33.20
2019-03-24T10:25:53.270Z,33.20
2019-03-24T10:28:25.741Z,33.10
2019-03-24T10:30:56.489Z,33.10
2019-03-24T10:33:27.349Z,33.10
2019-03-24T10:35:58.255Z,33.00
2019-03-24T10:38:29.343Z,33.00
2019-03-24T10:41:00.420Z,33.00
2019-03-24T10:43:31.514Z,32.90
2019-03-24T10:46:02.461Z,32.90
2019-03-24T10:48:53.363Z,32.80
2019-03-24T10:51:29.100Z,32.80
2019-03-24T10:54:00.238Z,32.70
2019-03-24T10:56:31.686Z,32.70
2019-03-24T10:59:04.960Z,32.70
2019-03-24T11:01:35.070Z,32.60
2019-03-24T11:04:06.174Z,32.60
2019-03-24T11:06:37.251Z,32.60
2019-03-24T11:09:08.980Z,32.60
2019-03-24T11:11:40.346Z,32.50
2019-03-24T11:14:11.336Z,32.50
2019-03-24T11:16:42.308Z,32.40
2019-03-24T11:19:13.267Z,32.40
2019-03-24T11:21:44.282Z,32.40
2019-03-24T11:24:15.502Z,32.40
2019-03-24T11:26:47.006Z,32.30
2019-03-24T11:29:18.290Z,32.30
2019-03-24T11:31:49.168Z,32.30
2019-03-24T11:34:19.989Z,32.20
2019-03-24T11:36:51.053Z,32.20
2019-03-24T11:39:21.839Z,32.20
2019-03-24T11:41:53.979Z,32.10
2019-03-24T11:44:25.420Z,32.10
2019-03-24T11:46:56.374Z,32.10
2019-03-24T11:49:27.495Z,32.10
2019-03-24T11:51:58.754Z,32.00
2019-03-24T11:54:29.814Z,32.00
2019-03-24T11:57:00.856Z,31.90
2019-03-24T11:59:31.890Z,31.90
2019-03-24T12:02:02.786Z,31.80
2019-03-24T12:04:33.724Z,31.90
2019-03-24T12:07:04.827Z,31.80
2019-03-24T12:09:35.887Z,31.80
2019-03-24T12:12:06.921Z,31.80
2019-03-24T12:14:38.285Z,31.80
2019-03-24T12:17:09.113Z,31.70
2019-03-24T12:19:39.852Z,31.70
2019-03-24T12:22:11.117Z,31.70
2019-03-24T12:24:42.041Z,31.70
2019-03-24T12:27:13.062Z,31.70
2019-03-24T12:29:44.176Z,31.60
2019-03-24T12:32:15.640Z,31.60
2019-03-24T12:34:48.173Z,31.60
2019-03-24T12:37:19.364Z,31.50
2019-03-24T12:39:52.705Z,31.50
2019-03-24T12:42:23.548Z,31.50
2019-03-24T12:44:55.391Z,31.50
2019-03-24T12:47:26.247Z,31.50
2019-03-24T12:50:07.988Z,31.50
2019-03-24T12:52:29.788Z,31.40
2019-03-24T12:55:01.326Z,31.40
2019-03-24T12:57:32.349Z,31.40
2019-03-24T13:00:03.550Z,31.50
2019-03-24T13:02:34.304Z,31.40
2019-03-24T13:05:06.437Z,31.40
2019-03-24T13:07:37.646Z,31.40
2019-03-24T13:10:09.555Z,31.30
2019-03-24T13:12:40.933Z,31.30
2019-03-24T13:15:12.077Z,31.30
2019-03-24T13:17:44.533Z,31.30
2019-03-24T13:20:22.521Z,31.30
2019-03-24T13:22:48.042Z,31.20
2019-03-24T13:25:19.123Z,31.20
2019-03-24T13:27:50.341Z,31.20
2019-03-24T13:30:21.307Z,31.10
2019-03-24T13:32:52.534Z,31.10
2019-03-24T13:35:23.759Z,31.10
2019-03-24T13:37:54.698Z,31.00
2019-03-24T13:40:25.658Z,31.00
2019-03-24T13:42:56.845Z,31.00
2019-03-24T13:45:27.854Z,31.00
2019-03-24T13:47:58.628Z,30.90
2019-03-24T13:50:31.696Z,31.00
2019-03-24T13:53:01.938Z,31.00
2019-03-24T13:55:53.315Z,30.90
2019-03-24T13:58:24.333Z,30.90
2019-03-24T14:00:55.513Z,30.90
2019-03-24T14:03:26.582Z,30.90
2019-03-24T14:05:57.503Z,30.90
2019-03-24T14:08:28.697Z,30.90
2019-03-24T14:11:02.596Z,30.90
2019-03-24T14:13:33.471Z,30.90
2019-03-24T14:16:04.754Z,30.80
2019-03-24T14:18:36.878Z,30.80
2019-03-24T14:21:08.142Z,30.80
2019-03-24T14:23:39.392Z,30.80
2019-03-24T14:26:10.376Z,30.70
2019-03-24T14:28:41.507Z,30.70
2019-03-24T14:31:12.783Z,30.70
2019-03-24T14:33:46.313Z,30.70
2019-03-24T14:36:17.419Z,30.60
2019-03-24T14:38:48.510Z,30.60
2019-03-24T14:41:19.802Z,30.60
2019-03-24T14:43:50.719Z,30.50
2019-03-24T14:46:21.790Z,30.50
2019-03-24T14:48:52.788Z,30.50
2019-03-24T14:51:23.631Z,30.40
2019-03-24T14:53:54.533Z,30.40
2019-03-24T14:56:25.561Z,30.40
2019-03-24T14:58:56.388Z,30.30
2019-03-24T15:01:27.550Z,30.30
2019-03-24T15:03:58.537Z,30.20
2019-03-24T15:06:29.504Z,30.20
2019-03-24T15:09:00.474Z,30.20
2019-03-24T15:11:31.733Z,30.10
2019-03-24T15:14:05.407Z,30.10
2019-03-24T15:16:36.691Z,30.10
2019-03-24T15:19:07.926Z,30.00
2019-03-24T15:21:41.634Z,30.00
2019-03-24T15:24:12.781Z,29.90
2019-03-24T15:26:43.891Z,29.90
2019-03-24T15:29:14.910Z,29.90
2019-03-24T15:31:46.135Z,29.90
2019-03-24T15:34:17.887Z,29.90
2019-03-24T15:36:49.024Z,29.90
2019-03-24T15:39:19.614Z,29.90
2019-03-24T15:41:50.339Z,29.90
2019-03-24T15:44:21.599Z,29.90
2019-03-24T15:46:52.878Z,29.90
2019-03-24T15:49:23.852Z,29.90
2019-03-24T15:51:56.709Z,29.90
2019-03-24T15:54:27.600Z,29.80
2019-03-24T15:56:58.623Z,29.80
2019-03-24T15:59:29.556Z,29.80
2019-03-24T16:02:00.527Z,29.80
2019-03-24T16:04:31.282Z,29.70
2019-03-24T16:07:02.303Z,29.70
2019-03-24T16:09:33.348Z,29.70
2019-03-24T16:12:04.300Z,29.70
2019-03-24T16:14:35.235Z,29.70
2019-03-24T16:17:06.225Z,29.70
2019-03-24T16:19:37.387Z,29.60
2019-03-24T16:22:10.791Z,29.60
2019-03-24T16:24:41.770Z,29.60
2019-03-24T16:27:12.646Z,29.50
2019-03-24T16:29:43.734Z,29.50
2019-03-24T16:32:14.985Z,29.50
2019-03-24T16:34:46.038Z,29.50
2019-03-24T16:37:17.284Z,29.50
2019-03-24T16:39:48.263Z,29.40
2019-03-24T16:42:19.087Z,29.40
2019-03-24T16:44:50.108Z,29.40
2019-03-24T16:47:21.412Z,29.40
2019-03-24T16:49:52.354Z,29.30
2019-03-24T16:52:23.372Z,29.30
2019-03-24T16:54:54.696Z,29.30
2019-03-24T16:57:25.602Z,29.20
2019-03-24T16:59:56.595Z,29.30
2019-03-24T17:02:27.792Z,29.20
2019-03-24T17:04:58.675Z,29.20
2019-03-24T17:07:29.760Z,29.10
2019-03-24T17:10:00.880Z,29.10
2019-03-24T17:12:31.783Z,29.10
2019-03-24T17:15:02.844Z,29.10
2019-03-24T17:17:34.021Z,29.10
2019-03-24T17:20:06.317Z,29.10
2019-03-24T17:22:37.508Z,29.10
2019-03-24T17:25:08.995Z,29.10
2019-03-24T17:27:40.317Z,29.00
2019-03-24T17:30:14.338Z,29.00
2019-03-24T17:32:45.409Z,29.00
2019-03-24T17:35:16.516Z,29.00
2019-03-24T17:37:47.599Z,29.00
2019-03-24T17:40:19.010Z,28.90
2019-03-24T17:42:50.266Z,29.00
2019-03-24T17:45:22.382Z,28.90
2019-03-24T17:47:53.216Z,28.90
2019-03-24T17:50:24.554Z,28.90
2019-03-24T17:52:55.347Z,28.90
2019-03-24T17:55:27.894Z,28.90
2019-03-24T17:57:58.834Z,28.90
2019-03-24T18:00:33.400Z,28.90
2019-03-24T18:03:05.555Z,28.90
2019-03-24T18:05:37.437Z,28.80
2019-03-24T18:08:08.464Z,28.90
2019-03-24T18:10:39.562Z,28.90
2019-03-24T18:13:10.845Z,28.80
2019-03-24T18:15:42.044Z,28.80
2019-03-24T18:18:13.176Z,28.80
2019-03-24T18:20:44.101Z,28.80
2019-03-24T18:23:15.046Z,28.80
2019-03-24T18:25:46.034Z,28.80
2019-03-24T18:28:17.242Z,28.70
2019-03-24T18:30:48.403Z,28.80
2019-03-24T18:33:19.490Z,28.70
2019-03-24T18:35:50.391Z,28.80
2019-03-24T18:38:21.585Z,28.70
2019-03-24T18:40:52.518Z,28.70
2019-03-24T18:43:23.840Z,28.70
2019-03-24T18:45:54.781Z,28.60
2019-03-24T18:48:25.663Z,28.60
2019-03-24T18:50:56.490Z,28.60
2019-03-24T18:53:27.606Z,28.50
2019-03-24T18:55:58.693Z,28.40
2019-03-24T18:58:31.887Z,28.40
2019-03-24T19:01:02.948Z,28.40
2019-03-24T19:03:33.964Z,28.50
2019-03-24T19:06:05.292Z,28.40
2019-03-24T19:08:36.201Z,28.40
2019-03-24T19:11:07.363Z,28.40
2019-03-24T19:13:38.470Z,28.40
2019-03-24T19:16:09.826Z,28.40
2019-03-24T19:18:40.900Z,28.30
2019-03-24T19:21:12.021Z,28.30
2019-03-24T19:23:43.290Z,28.20
2019-03-24T19:26:14.354Z,28.20
2019-03-24T19:28:45.223Z,28.10
2019-03-24T19:31:17.101Z,28.10
2019-03-24T19:33:48.063Z,28.10
2019-03-24T19:36:19.171Z,28.10
2019-03-24T19:38:50.562Z,28.20
2019-03-24T19:41:21.490Z,28.20
2019-03-24T19:43:52.648Z,28.20
2019-03-24T19:46:23.801Z,28.20
2019-03-24T19:48:55.002Z,28.10
2019-03-24T19:51:27.618Z,28.10
2019-03-24T19:54:00.648Z,28.10
2019-03-24T19:56:31.972Z,28.10
2019-03-24T19:59:02.800Z,28.00
2019-03-24T20:01:34.078Z,28.00
2019-03-24T20:04:04.806Z,28.00
2019-03-24T20:06:40.111Z,28.00
2019-03-24T20:09:11.564Z,28.00
2019-03-24T20:11:43.493Z,28.00
2019-03-24T20:14:14.861Z,28.00
2019-03-24T20:16:47.969Z,28.00
2019-03-24T20:19:18.933Z,28.00
2019-03-24T20:21:50.342Z,28.00
2019-03-24T20:24:21.423Z,28.00
2019-03-24T20:26:55.235Z,28.00
2019-03-24T20:29:26.127Z,28.00
2019-03-24T20:31:57.116Z,28.00
2019-03-24T20:34:28.305Z,28.00
2019-03-24T20:36:59.237Z,28.00
2019-03-24T20:39:30.270Z,28.00
2019-03-24T20:42:01.214Z,28.10
2019-03-24T20:44:32.138Z,28.00
2019-03-24T20:47:03.083Z,28.00
2019-03-24T20:49:34.027Z,28.00
2019-03-24T20:52:05.111Z,28.00
2019-03-24T20:54:36.842Z,27.90
2019-03-24T20:57:08.696Z,27.90
2019-03-24T20:59:39.809Z,27.80
2019-03-24T21:02:11.570Z,27.80
2019-03-24T21:04:42.554Z,27.80
2019-03-24T21:07:13.500Z,27.80
2019-03-24T21:09:46.506Z,27.80
2019-03-24T21:12:16.707Z,27.80
2019-03-24T21:14:47.529Z,27.70
2019-03-24T21:17:18.731Z,27.70
2019-03-24T21:19:49.717Z,27.70
2019-03-24T21:22:20.878Z,27.70
2019-03-24T21:24:51.758Z,27.70
2019-03-24T21:27:22.763Z,27.70
2019-03-24T21:29:53.690Z,27.70
2019-03-24T21:32:24.678Z,27.70
2019-03-24T21:34:55.815Z,27.70
2019-03-24T21:37:26.516Z,27.70
2019-03-24T21:39:57.429Z,27.70
2019-03-24T21:42:28.525Z,27.70
2019-03-24T21:44:59.724Z,27.70
2019-03-24T21:47:33.557Z,27.80
2019-03-24T21:50:07.561Z,27.70
2019-03-24T21:52:38.696Z,27.80
2019-03-24T21:55:10.418Z,27.80
2019-03-24T21:57:41.264Z,27.80
2019-03-24T22:00:12.794Z,27.80
2019-03-24T22:02:43.811Z,27.70
2019-03-24T22:05:14.833Z,27.80
2019-03-24T22:07:45.864Z,27.80
2019-03-24T22:10:17.063Z,27.80
2019-03-24T22:12:48.055Z,27.80
2019-03-24T22:15:18.865Z,27.80
2019-03-24T22:17:49.908Z,27.80
2019-03-24T22:20:20.993Z,27.80
2019-03-24T22:22:52.035Z,27.80
2019-03-24T22:25:22.816Z,27.90
2019-03-24T22:27:53.918Z,27.80
2019-03-24T22:30:24.976Z,27.80
2019-03-24T22:32:56.097Z,27.80
2019-03-24T22:35:26.976Z,27.80
2019-03-24T22:37:58.296Z,27.70
2019-03-24T22:40:29.262Z,27.70
2019-03-24T22:43:00.254Z,27.70
2019-03-24T22:45:31.257Z,27.70
2019-03-24T22:48:02.685Z,27.70
2019-03-24T22:50:33.574Z,27.70
2019-03-24T22:53:04.528Z,27.70
2019-03-24T22:55:35.646Z,27.60
2019-03-24T22:58:06.831Z,27.60
2019-03-24T23:00:39.408Z,27.60
2019-03-24T23:03:10.763Z,27.60
2019-03-24T23:05:41.608Z,27.50
2019-03-24T23:08:12.613Z,27.50
2019-03-24T23:10:43.661Z,27.50
2019-03-24T23:13:14.816Z,27.40
2019-03-24T23:15:45.812Z,27.40
2019-03-24T23:18:17.619Z,27.40
2019-03-24T23:20:48.578Z,27.30
2019-03-24T23:23:19.513Z,27.40
2019-03-24T23:25:50.681Z,27.40
2019-03-24T23:28:21.869Z,27.40
2019-03-24T23:30:53.032Z,27.30
2019-03-24T23:33:24.032Z,27.40
2019-03-24T23:35:55.056Z,27.30
2019-03-24T23:38:26.150Z,27.30
2019-03-24T23:40:57.259Z,27.30
2019-03-24T23:43:28.309Z,27.30
2019-03-24T23:45:59.433Z,27.30
2019-03-24T23:48:30.482Z,27.40
2019-03-24T23:51:01.773Z,27.40
2019-03-24T23:53:32.819Z,27.40
2019-03-24T23:56:04.542Z,27.40
2019-03-24T23:58:40.765Z,27.40
